Time;durP1;ratioP1;P1;durP2;ratioP2;P2;SDS_P1;SDS_P2;PMS_P1;PMS_P2;Temp;Humidity;BMP_temperature;BMP_pressure;BME280_temperature;BME280_humidity;BME280_pressure;Samples;Min_cycle;Max_cycle;Signal;HPM_P1;HPM_P2
2022/04/13 00:00:28;;;;;;;14.73;2.22;;;25.60;20.50;;;;;;5069911;28;20072;-71
2022/04/13 00:02:55;;;;;;;10.70;2.13;;;25.60;20.70;;;;;;5062959;28;20072;-70
2022/04/13 00:05:22;;;;;;;18.70;1.98;;;25.70;21.00;;;;;;5071071;28;20163;-69
2022/04/13 00:07:48;;;;;;;14.48;2.03;;;25.60;20.60;;;;;;5037190;28;20463;-69
2022/04/13 00:10:15;;;;;;;24.60;2.30;;;25.60;21.00;;;;;;5057427;28;20080;-68
2022/04/13 00:12:42;;;;;;;13.57;2.70;;;25.50;20.70;;;;;;5070086;28;20154;-69
2022/04/13 00:15:09;;;;;;;12.82;2.33;;;25.40;20.60;;;;;;5070676;28;20084;-72
2022/04/13 00:17:37;;;;;;;15.25;2.35;;;25.40;20.50;;;;;;5070326;28;20086;-68
2022/04/13 00:20:05;;;;;;;18.55;2.50;;;25.30;20.90;;;;;;5070450;28;20528;-68
2022/04/13 00:22:31;;;;;;;12.52;2.15;;;25.40;20.50;;;;;;5063561;28;20102;-68
2022/04/13 00:24:58;;;;;;;9.43;1.70;;;25.40;20.30;;;;;;5053194;28;20166;-69
2022/04/13 00:27:24;;;;;;;12.25;2.30;;;25.30;20.10;;;;;;5066458;28;20179;-67
2022/04/13 00:29:51;;;;;;;15.50;2.40;;;25.20;19.90;;;;;;5069071;28;20174;-66
2022/04/13 00:32:17;;;;;;;12.50;1.90;;;25.10;20.10;;;;;;5054838;28;20587;-71
2022/04/13 00:34:43;;;;;;;25.00;3.97;;;25.20;20.00;;;;;;5069087;28;20096;-70
2022/04/13 00:37:10;;;;;;;54.80;4.10;;;25.10;20.10;;;;;;5052619;28;20068;-68
2022/04/13 00:39:36;;;;;;;20.98;2.53;;;25.10;21.00;;;;;;5063125;28;20075;-69
2022/04/13 00:42:06;;;;;;;14.82;2.38;;;25.00;20.20;;;;;;5057854;28;20088;-66
2022/04/13 00:44:33;;;;;;;373.58;25.95;;;25.00;20.20;;;;;;5060073;28;20068;-67
2022/04/13 00:47:04;;;;;;;29.20;3.58;;;25.00;19.80;;;;;;5062513;28;20103;-70
2022/04/13 00:49:31;;;;;;;15.75;3.00;;;25.10;20.70;;;;;;5062186;28;20187;-68
2022/04/13 00:52:03;;;;;;;31.25;3.75;;;25.10;21.00;;;;;;5059472;28;21634;-67
2022/04/13 00:54:31;;;;;;;10.65;2.30;;;25.10;20.10;;;;;;5069800;28;20126;-68
2022/04/13 00:56:58;;;;;;;14.35;1.90;;;25.10;20.10;;;;;;5052783;28;20092;-69
2022/04/13 00:59:26;;;;;;;10.25;2.10;;;24.80;19.80;;;;;;5052269;28;20129;-67
2022/04/13 01:01:58;;;;;;;17.67;2.45;;;24.60;19.90;;;;;;5061215;28;20071;-67
2022/04/13 01:04:31;;;;;;;17.77;2.13;;;24.50;20.90;;;;;;5052434;28;20110;-68
2022/04/13 01:06:57;;;;;;;17.20;2.53;;;24.40;21.20;;;;;;5068490;28;20121;-68
2022/04/13 01:09:25;;;;;;;10.40;2.97;;;24.40;20.20;;;;;;5063456;28;20078;-69
2022/04/13 01:11:52;;;;;;;12.05;1.90;;;24.30;20.10;;;;;;5068185;28;20635;-70
2022/04/13 01:14:19;;;;;;;8.43;1.98;;;24.20;20.10;;;;;;5063440;28;20562;-69
2022/04/13 01:16:45;;;;;;;11.82;2.20;;;24.10;20.20;;;;;;5049525;28;20091;-74
2022/04/13 01:19:13;;;;;;;18.25;1.92;;;23.90;20.30;;;;;;5056004;28;20730;-68
2022/04/13 01:21:47;;;;;;;17.25;2.30;;;24.00;21.70;;;;;;5050129;28;20072;-71
2022/04/13 01:24:16;;;;;;;11.35;2.47;;;24.00;21.90;;;;;;5062324;28;20072;-68
2022/04/13 01:26:43;;;;;;;16.23;2.40;;;23.90;20.80;;;;;;5061457;28;20107;-68
2022/04/13 01:29:09;;;;;;;10.98;2.53;;;23.80;20.50;;;;;;5058817;28;20076;-70
2022/04/13 01:31:36;;;;;;;15.48;2.03;;;23.70;21.10;;;;;;5060745;28;21444;-70
2022/04/13 01:34:03;;;;;;;15.55;2.05;;;23.60;20.60;;;;;;5054342;28;20084;-68
2022/04/13 01:36:32;;;;;;;11.95;2.30;;;23.50;20.80;;;;;;5059717;28;20091;-70
2022/04/13 01:38:59;;;;;;;10.05;2.30;;;23.30;21.40;;;;;;5044351;28;21038;-68
2022/04/13 01:41:25;;;;;;;19.92;2.88;;;23.10;21.10;;;;;;5066704;28;20067;-71
2022/04/13 01:43:52;;;;;;;16.17;2.45;;;23.10;21.30;;;;;;5059037;28;20075;-68
2022/04/13 01:46:18;;;;;;;24.40;2.55;;;23.00;20.80;;;;;;5057933;28;20089;-65
2022/04/13 01:48:45;;;;;;;14.25;2.20;;;22.90;21.20;;;;;;5056397;28;20086;-69
2022/04/13 01:51:11;;;;;;;15.20;2.30;;;22.80;21.80;;;;;;5066785;28;20453;-65
2022/04/13 01:53:37;;;;;;;14.65;2.03;;;22.80;22.40;;;;;;5056212;28;21496;-66
2022/04/13 01:56:04;;;;;;;10.45;2.17;;;22.70;22.10;;;;;;5069909;28;20194;-66
2022/04/13 01:58:31;;;;;;;16.65;2.33;;;22.60;21.70;;;;;;5054613;28;20072;-65
2022/04/13 02:00:58;;;;;;;18.55;2.80;;;22.40;21.80;;;;;;5068219;28;20064;-67
2022/04/13 02:03:25;;;;;;;10.10;1.98;;;22.30;22.40;;;;;;5067816;28;20447;-67
2022/04/13 02:05:55;;;;;;;12.40;2.83;;;22.20;21.30;;;;;;5063777;28;21022;-65
2022/04/13 02:08:22;;;;;;;15.70;2.42;;;22.20;22.60;;;;;;5067817;28;20455;-66
2022/04/13 02:10:49;;;;;;;14.20;2.58;;;22.10;22.70;;;;;;5058241;28;20528;-67
2022/04/13 02:13:16;;;;;;;17.95;2.15;;;22.00;23.20;;;;;;5068328;28;20558;-66
2022/04/13 02:15:42;;;;;;;17.52;2.70;;;22.00;23.20;;;;;;5059844;28;20157;-67
2022/04/13 02:18:09;;;;;;;11.18;2.03;;;21.90;23.70;;;;;;5068200;28;20068;-71
2022/04/13 02:20:35;;;;;;;15.73;2.38;;;21.70;23.20;;;;;;5067138;28;20068;-68
2022/04/13 02:23:02;;;;;;;12.90;2.65;;;21.60;22.80;;;;;;5062466;28;20087;-67
2022/04/13 02:25:28;;;;;;;18.98;2.33;;;21.60;22.90;;;;;;5070576;28;20072;-64
2022/04/13 02:27:55;;;;;;;14.85;2.75;;;21.50;22.80;;;;;;5068766;28;20079;-70
2022/04/13 02:30:21;;;;;;;17.85;2.60;;;21.50;23.60;;;;;;5055496;28;20080;-71
2022/04/13 02:32:48;;;;;;;17.08;3.17;;;21.40;23.70;;;;;;5052665;28;20516;-71
2022/04/13 02:35:14;;;;;;;16.88;3.13;;;21.40;24.10;;;;;;5039386;28;20425;-69
2022/04/13 02:37:43;;;;;;;62.15;33.95;;;21.30;24.80;;;;;;5068010;28;20074;-67
2022/04/13 02:40:10;;;;;;;71.32;48.30;;;21.30;24.80;;;;;;5062827;28;20562;-70
2022/04/13 02:42:37;;;;;;;21.42;8.10;;;21.20;25.00;;;;;;5063311;28;20099;-69
2022/04/13 02:45:04;;;;;;;19.45;7.32;;;21.10;24.80;;;;;;5063049;28;20129;-70
2022/04/13 02:47:35;;;;;;;18.02;5.93;;;21.10;25.60;;;;;;5060594;28;20163;-69
2022/04/13 02:50:02;;;;;;;24.15;5.13;;;21.00;25.10;;;;;;5067046;28;20170;-68
2022/04/13 02:52:30;;;;;;;15.65;3.45;;;21.00;24.70;;;;;;5050906;28;20075;-69
2022/04/13 02:54:57;;;;;;;17.50;6.20;;;20.90;24.90;;;;;;5060379;28;20115;-70
2022/04/13 02:57:24;;;;;;;24.50;6.88;;;20.80;24.30;;;;;;5072679;28;20566;-70
2022/04/13 02:59:51;;;;;;;25.33;6.47;;;20.80;24.60;;;;;;5060869;28;20428;-71
2022/04/13 03:02:18;;;;;;;19.55;5.88;;;20.80;24.80;;;;;;5058103;28;20071;-69
2022/04/13 03:04:46;;;;;;;26.33;5.97;;;20.70;25.30;;;;;;5070736;28;20191;-71
2022/04/13 03:07:15;;;;;;;23.60;5.78;;;20.60;24.90;;;;;;5072137;28;20069;-64
2022/04/13 03:09:42;;;;;;;25.38;5.53;;;20.60;25.30;;;;;;5053180;28;20159;-66
2022/04/13 03:12:09;;;;;;;26.58;5.30;;;20.60;25.50;;;;;;5053778;28;20132;-64
2022/04/13 03:14:36;;;;;;;21.52;4.60;;;20.50;25.90;;;;;;5052558;28;20189;-68
2022/04/13 03:17:03;;;;;;;21.38;4.75;;;20.50;26.00;;;;;;5070512;28;20559;-70
2022/04/13 03:19:29;;;;;;;23.48;4.00;;;20.50;26.00;;;;;;5053505;28;21316;-69
2022/04/13 03:21:56;;;;;;;21.48;3.67;;;20.50;24.90;;;;;;5051914;28;20130;-67
2022/04/13 03:24:22;;;;;;;23.98;3.72;;;20.40;25.40;;;;;;5053912;28;20095;-69
2022/04/13 03:26:49;;;;;;;23.45;4.55;;;20.50;26.10;;;;;;5053617;28;20119;-70
2022/04/13 03:29:16;;;;;;;16.75;3.83;;;20.40;26.70;;;;;;5071413;28;20077;-68
2022/04/13 03:31:42;;;;;;;23.42;4.03;;;20.40;28.50;;;;;;5053186;28;20444;-70
2022/04/13 03:34:08;;;;;;;27.58;4.55;;;20.40;29.20;;;;;;5071509;28;20081;-68
2022/04/13 03:36:39;;;;;;;27.00;4.45;;;20.40;29.80;;;;;;5072443;28;20085;-71
2022/04/13 03:39:07;;;;;;;28.17;4.30;;;20.40;30.10;;;;;;5052777;28;20503;-68
2022/04/13 03:41:36;;;;;;;25.60;4.47;;;20.30;30.40;;;;;;5071798;28;20072;-69
2022/04/13 03:44:03;;;;;;;24.00;4.53;;;20.30;30.70;;;;;;5053270;28;20324;-71
2022/04/13 03:46:30;;;;;;;27.42;4.07;;;20.30;31.00;;;;;;5052678;28;20491;-70
2022/04/13 03:48:57;;;;;;;16.75;3.75;;;20.20;31.40;;;;;;5052187;28;20077;-68
2022/04/13 03:51:23;;;;;;;19.60;3.45;;;20.20;31.80;;;;;;5053567;28;20512;-69
2022/04/13 03:53:50;;;;;;;17.25;3.50;;;20.20;32.00;;;;;;5053274;28;20482;-71
2022/04/13 03:56:17;;;;;;;17.40;3.42;;;20.20;32.20;;;;;;5053930;28;20088;-68
2022/04/13 03:58:43;;;;;;;16.35;3.88;;;20.10;32.30;;;;;;5071643;28;20073;-68
2022/04/13 04:01:10;;;;;;;22.00;4.22;;;20.10;32.50;;;;;;5070362;28;20065;-69
2022/04/13 04:03:37;;;;;;;18.63;3.60;;;20.10;32.50;;;;;;5052076;28;20529;-69
2022/04/13 04:06:04;;;;;;;16.77;3.88;;;20.10;32.60;;;;;;5071643;28;20088;-68
2022/04/13 04:08:35;;;;;;;24.10;3.20;;;20.00;32.80;;;;;;5071677;28;20135;-70
2022/04/13 04:11:02;;;;;;;21.48;3.63;;;20.00;32.90;;;;;;5053201;28;20073;-68
2022/04/13 04:13:28;;;;;;;23.98;3.97;;;20.00;32.90;;;;;;5052899;28;20185;-71
2022/04/13 04:15:55;;;;;;;18.95;3.88;;;19.90;33.10;;;;;;5051599;28;20142;-70
2022/04/13 04:18:21;;;;;;;22.42;3.83;;;19.90;33.30;;;;;;5072949;28;20115;-68
2022/04/13 04:20:47;;;;;;;;;;;19.90;33.60;;;;;;5052783;28;20151;-71
2022/04/13 04:23:13;;;;;;;19.08;3.20;;;19.90;33.80;;;;;;5052067;28;19960;-69
2022/04/13 04:25:40;;;;;;;22.52;3.47;;;19.90;34.10;;;;;;5052721;28;20097;-70
2022/04/13 04:28:10;;;;;;;33.67;10.35;;;19.80;34.30;;;;;;5050281;28;20549;-71
2022/04/13 04:30:37;;;;;;;29.17;4.78;;;19.80;34.60;;;;;;5052141;28;20085;-69
2022/04/13 04:33:05;;;;;;;36.58;7.03;;;19.70;34.30;;;;;;5051288;28;20097;-68
2022/04/13 04:35:32;;;;;;;36.33;6.20;;;19.70;34.40;;;;;;5050717;28;20093;-71
2022/04/13 04:38:00;;;;;;;28.42;5.05;;;19.70;34.70;;;;;;5052011;28;20551;-65
2022/04/13 04:40:26;;;;;;;31.38;3.67;;;19.60;35.30;;;;;;5050696;28;20142;-70
2022/04/13 04:42:54;;;;;;;26.90;5.43;;;19.50;35.80;;;;;;5051794;28;20100;-68
2022/04/13 04:45:21;;;;;;;23.85;4.70;;;19.50;36.10;;;;;;5070141;28;20097;-67
2022/04/13 04:47:53;;;;;;;41.30;5.25;;;19.50;36.60;;;;;;5033176;28;20447;-70
2022/04/13 04:50:22;;;;;;;42.13;4.50;;;19.50;36.90;;;;;;5060824;28;20198;-69
2022/04/13 04:52:49;;;;;;;32.08;4.28;;;19.50;37.90;;;;;;5056587;28;20168;-71
2022/04/13 04:55:18;;;;;;;22.17;3.53;;;19.50;37.60;;;;;;5051830;28;20098;-69
2022/04/13 04:57:45;;;;;;;12.13;2.83;;;19.40;37.90;;;;;;5057051;28;20141;-63
2022/04/13 05:00:15;;;;;;;17.75;3.90;;;19.40;38.20;;;;;;5065012;28;20072;-63
2022/04/13 05:02:41;;;;;;;17.77;3.50;;;19.40;38.30;;;;;;5034928;28;20604;-64
2022/04/13 05:05:07;;;;;;;;;;;19.30;38.20;;;;;;5051671;28;20473;-63
2022/04/13 05:07:34;;;;;;;15.15;3.25;;;19.30;38.10;;;;;;5048324;28;19957;-63
2022/04/13 05:10:00;;;;;;;20.48;4.05;;;19.30;38.20;;;;;;5051033;28;20077;-62
2022/04/13 05:12:27;;;;;;;18.58;3.03;;;19.20;38.30;;;;;;5049888;28;20103;-62
2022/04/13 05:14:55;;;;;;;13.55;2.85;;;19.10;38.40;;;;;;5069418;28;20092;-63
2022/04/13 05:17:25;;;;;;;19.02;3.20;;;19.10;38.50;;;;;;5069682;28;20513;-61
2022/04/13 05:19:51;;;;;;;20.30;3.55;;;19.10;38.70;;;;;;5051563;28;20078;-61
2022/04/13 05:22:17;;;;;;;;;;;19.10;38.70;;;;;;5051634;28;20145;-65
2022/04/13 05:24:44;;;;;;;18.33;4.15;;;19.00;38.80;;;;;;5051097;28;19968;-65
2022/04/13 05:27:11;;;;;;;24.20;3.47;;;19.00;38.90;;;;;;5069619;28;20111;-62
2022/04/13 05:29:37;;;;;;;28.08;3.65;;;19.00;38.90;;;;;;5070002;28;20067;-63
2022/04/13 05:32:04;;;;;;;23.15;3.47;;;19.00;38.90;;;;;;5050292;28;20080;-61
2022/04/13 05:34:31;;;;;;;15.82;3.47;;;18.90;38.90;;;;;;5050686;28;20112;-65
2022/04/13 05:36:57;;;;;;;20.63;3.08;;;18.90;38.80;;;;;;5051092;28;20097;-65
2022/04/13 05:39:25;;;;;;;;;;;18.90;38.50;;;;;;5051368;28;20094;-62
2022/04/13 05:41:51;;;;;;;19.75;3.42;;;18.90;38.50;;;;;;5065483;28;19960;-65
2022/04/13 05:44:17;;;;;;;;;;;18.90;38.70;;;;;;5050906;28;20092;-64
2022/04/13 05:46:44;;;;;;;20.63;2.83;;;18.90;38.40;;;;;;5050996;28;20398;-63
2022/04/13 05:49:10;;;;;;;15.15;2.80;;;18.80;38.40;;;;;;5049383;28;20434;-65
2022/04/13 05:51:37;;;;;;;24.13;3.63;;;18.80;38.30;;;;;;5049295;28;20108;-65
2022/04/13 05:54:03;;;;;;;17.63;2.95;;;18.80;38.40;;;;;;5050393;28;20083;-62
2022/04/13 05:56:30;;;;;;;21.17;3.13;;;18.80;38.80;;;;;;5051444;28;20553;-62
2022/04/13 05:58:56;;;;;;;22.83;3.40;;;18.80;38.60;;;;;;5069139;28;20070;-63
2022/04/13 06:01:22;;;;;;;;;;;18.80;38.60;;;;;;5051050;28;20076;-63
2022/04/13 06:03:48;;;;;;;23.05;3.47;;;18.80;38.60;;;;;;5049763;28;20342;-65
2022/04/13 06:06:14;;;;;;;;;;;18.80;38.30;;;;;;5051345;28;20150;-65
2022/04/13 06:08:41;;;;;;;23.75;3.63;;;18.70;38.40;;;;;;5068956;28;20048;-62
2022/04/13 06:11:07;;;;;;;;;;;18.70;38.40;;;;;;5050571;28;20098;-62
2022/04/13 06:13:33;;;;;;;22.00;3.20;;;18.70;38.10;;;;;;5049528;28;20425;-62
2022/04/13 06:16:00;;;;;;;11.45;2.40;;;18.60;37.60;;;;;;5069051;28;20459;-64
2022/04/13 06:18:26;;;;;;;13.35;2.72;;;18.60;37.70;;;;;;5050905;28;20069;-64
2022/04/13 06:20:52;;;;;;;;;;;18.60;37.30;;;;;;5050980;28;20073;-65
2022/04/13 06:23:19;;;;;;;11.15;2.67;;;18.60;37.30;;;;;;5068855;28;20003;-64
2022/04/13 06:25:45;;;;;;;;;;;18.50;37.20;;;;;;5051932;28;20069;-62
2022/04/13 06:28:11;;;;;;;12.40;2.70;;;18.50;37.00;;;;;;5055764;28;20315;-62
2022/04/13 06:30:37;;;;;;;15.95;2.83;;;18.50;36.90;;;;;;5057777;28;20088;-61
2022/04/13 06:33:04;;;;;;;;;;;18.50;36.90;;;;;;5060597;28;20532;-62
2022/04/13 06:35:30;;;;;;;16.63;2.83;;;18.50;37.00;;;;;;5057309;28;20033;-65
2022/04/13 06:37:56;;;;;;;15.68;2.42;;;18.50;36.80;;;;;;5058495;28;20155;-63
2022/04/13 06:40:22;;;;;;;;;;;18.50;36.70;;;;;;5061296;28;20067;-63
2022/04/13 06:42:49;;;;;;;20.65;2.90;;;18.50;36.40;;;;;;5072205;28;19965;-63
2022/04/13 06:45:16;;;;;;;18.65;2.78;;;18.50;36.10;;;;;;5058624;28;20084;-65
2022/04/13 06:47:42;;;;;;;10.57;2.53;;;18.50;36.10;;;;;;5062534;28;20615;-63
2022/04/13 06:50:10;;;;;;;12.02;3.08;;;18.40;36.00;;;;;;5072248;28;20138;-63
2022/04/13 06:52:38;;;;;;;16.25;3.03;;;18.40;35.70;;;;;;5072092;28;20578;-62
2022/04/13 06:55:05;;;;;;;10.02;2.53;;;18.40;35.80;;;;;;5059686;28;20099;-63
2022/04/13 06:57:37;;;;;;;12.35;2.47;;;18.40;35.90;;;;;;5058311;28;20084;-66
2022/04/13 07:00:05;;;;;;;11.38;2.50;;;18.40;35.60;;;;;;5072151;28;20192;-65
2022/04/13 07:02:32;;;;;;;19.70;3.15;;;18.40;35.90;;;;;;5057874;28;20108;-59
2022/04/13 07:04:59;;;;;;;14.48;2.55;;;18.60;36.00;;;;;;5057994;28;20101;-61
2022/04/13 07:07:25;;;;;;;15.63;2.65;;;18.60;35.50;;;;;;5041854;28;20093;-61
2022/04/13 07:09:51;;;;;;;13.73;2.60;;;18.80;35.40;;;;;;5058178;28;20069;-61
2022/04/13 07:12:18;;;;;;;13.38;2.53;;;19.10;34.70;;;;;;5054638;28;20077;-67
2022/04/13 07:14:44;;;;;;;18.83;2.83;;;19.20;33.70;;;;;;5059296;28;20534;-67
2022/04/13 07:17:12;;;;;;;;;;;19.20;33.30;;;;;;5044415;28;20471;-63
2022/04/13 07:19:38;;;;;;;;;;;19.20;33.40;;;;;;5063278;28;19979;-64
2022/04/13 07:22:05;;;;;;;11.93;2.65;;;19.40;33.00;;;;;;5058730;28;19967;-63
2022/04/13 07:24:31;;;;;;;23.15;3.42;;;19.30;32.70;;;;;;5059388;28;20480;-61
2022/04/13 07:26:58;;;;;;;17.80;2.75;;;19.10;32.40;;;;;;5059588;28;20095;-66
2022/04/13 07:29:24;;;;;;;10.23;2.30;;;19.10;32.40;;;;;;5059885;28;20073;-63
2022/04/13 07:31:51;;;;;;;11.05;2.40;;;19.00;32.00;;;;;;5057029;28;20147;-60
2022/04/13 07:34:17;;;;;;;10.68;2.88;;;19.00;31.80;;;;;;5055490;28;20278;-60
2022/04/13 07:36:43;;;;;;;14.07;2.90;;;19.10;31.50;;;;;;5059286;28;20570;-68
2022/04/13 07:39:09;;;;;;;;;;;19.00;31.60;;;;;;5058684;28;20438;-65
2022/04/13 07:41:36;;;;;;;11.60;2.40;;;19.10;31.50;;;;;;5057155;28;19961;-60
2022/04/13 07:44:02;;;;;;;10.02;2.58;;;19.20;31.20;;;;;;5060126;28;20077;-62
2022/04/13 07:46:29;;;;;;;15.52;2.35;;;19.30;30.60;;;;;;5057690;28;20075;-64
2022/04/13 07:48:56;;;;;;;7.93;2.50;;;19.30;30.00;;;;;;5056048;28;20079;-63
2022/04/13 07:51:22;;;;;;;14.90;2.75;;;19.10;30.50;;;;;;5058782;28;20414;-66
2022/04/13 07:53:49;;;;;;;17.10;2.72;;;19.10;30.80;;;;;;5071778;28;20165;-67
2022/04/13 07:56:15;;;;;;;7.78;2.28;;;19.10;30.10;;;;;;5060342;28;20495;-61
2022/04/13 07:58:42;;;;;;;11.43;2.20;;;19.10;30.00;;;;;;5071497;28;20085;-66
2022/04/13 08:01:08;;;;;;;10.15;2.35;;;19.00;29.80;;;;;;5070894;28;20564;-62
2022/04/13 08:03:34;;;;;;;;;;;19.00;29.80;;;;;;5055540;28;20448;-62
2022/04/13 08:06:02;;;;;;;9.63;2.50;;;18.90;29.50;;;;;;5060528;28;19968;-62
2022/04/13 08:08:29;;;;;;;11.95;2.20;;;18.80;29.30;;;;;;5070694;28;21121;-62
2022/04/13 08:10:55;;;;;;;12.07;2.40;;;18.70;29.10;;;;;;5056008;28;20115;-66
2022/04/13 08:13:21;;;;;;;;;;;18.70;29.10;;;;;;5070597;28;20111;-58
2022/04/13 08:15:48;;;;;;;8.38;2.35;;;18.60;28.30;;;;;;5058653;28;19977;-64
2022/04/13 08:18:14;;;;;;;10.48;1.92;;;18.60;27.50;;;;;;5059147;28;20593;-60
2022/04/13 08:20:41;;;;;;;15.68;2.10;;;18.50;27.70;;;;;;5055371;28;20069;-61
2022/04/13 08:23:07;;;;;;;8.85;2.53;;;18.60;27.80;;;;;;5055598;28;20069;-64
2022/04/13 08:25:33;;;;;;;;;;;18.70;28.40;;;;;;5070857;28;20108;-61
2022/04/13 08:28:00;;;;;;;15.50;2.58;;;18.70;28.40;;;;;;5070110;28;20405;-61
2022/04/13 08:30:26;;;;;;;10.00;2.47;;;18.70;28.70;;;;;;5060317;28;20176;-62
2022/04/13 08:32:52;;;;;;;;;;;18.60;29.00;;;;;;5060613;28;20071;-64
2022/04/13 08:35:18;;;;;;;8.50;2.20;;;18.60;29.20;;;;;;5069281;28;19973;-60
2022/04/13 08:37:45;;;;;;;11.77;2.55;;;18.60;29.10;;;;;;5058764;28;21449;-61
2022/04/13 08:40:12;;;;;;;13.20;2.03;;;18.50;28.70;;;;;;5056190;28;20073;-62
2022/04/13 08:43:10;;;;;;;5.68;1.70;;;18.40;28.60;;;;;;5069831;28;20073;-61
2022/04/13 08:45:59;;;;;;;12.32;2.08;;;18.20;28.40;;;;;;5069173;28;20545;-60
2022/04/13 08:48:27;;;;;;;10.60;2.45;;;18.10;28.40;;;;;;5068797;28;20088;-61
2022/04/13 08:50:59;;;;;;;13.27;2.42;;;17.90;28.00;;;;;;5056087;28;20097;-61
2022/04/13 08:53:36;;;;;;;11.82;2.55;;;17.90;27.90;;;;;;5056988;28;20076;-59
2022/04/13 08:56:02;;;;;;;;;;;17.80;27.60;;;;;;5054808;28;20092;-59
2022/04/13 08:58:33;;;;;;;12.60;3.10;;;17.80;27.60;;;;;;5040644;28;19957;-65
2022/04/13 09:01:05;;;;;;;7.10;3.10;;;17.80;27.40;;;;;;5057086;28;20101;-62
2022/04/13 09:03:48;;;;;;;11.05;3.30;;;17.80;27.20;;;;;;5055154;28;20075;-60
2022/04/13 09:06:16;;;;;;;13.15;4.13;;;17.80;27.20;;;;;;5055970;28;20096;-66
2022/04/13 09:08:53;;;;;;;14.13;4.07;;;17.80;27.10;;;;;;5056600;28;20184;-64
2022/04/13 09:11:22;;;;;;;15.93;4.03;;;17.80;27.10;;;;;;5056572;28;20436;-63
2022/04/13 09:13:49;;;;;;;17.73;4.30;;;17.80;27.30;;;;;;5069652;28;20218;-64
2022/04/13 09:16:16;;;;;;;13.13;3.95;;;17.70;27.20;;;;;;5053967;28;20105;-62
2022/04/13 09:18:44;;;;;;;15.38;4.22;;;17.70;27.30;;;;;;5069070;28;20084;-65
2022/04/13 09:21:17;;;;;;;18.33;4.28;;;17.60;27.10;;;;;;5054149;28;20081;-62
2022/04/13 09:23:44;;;;;;;9.65;4.10;;;17.60;27.70;;;;;;5069255;28;20057;-61
2022/04/13 09:26:12;;;;;;;15.40;4.00;;;17.70;27.30;;;;;;5054893;28;20097;-64
2022/04/13 09:28:38;;;;;;;12.55;4.18;;;17.60;27.40;;;;;;5055491;28;20077;-60
2022/04/13 09:31:05;;;;;;;20.92;4.95;;;17.50;27.50;;;;;;5069351;28;20159;-59
2022/04/13 09:33:32;;;;;;;17.25;4.38;;;17.50;28.00;;;;;;5068653;28;20073;-64
2022/04/13 09:35:59;;;;;;;15.27;5.22;;;17.50;28.30;;;;;;5055108;28;20095;-60
2022/04/13 09:38:26;;;;;;;9.95;3.60;;;17.40;29.30;;;;;;5069050;28;20176;-60
2022/04/13 09:40:53;;;;;;;10.35;3.55;;;17.40;29.00;;;;;;5068867;28;20061;-60
2022/04/13 09:43:22;;;;;;;15.57;3.15;;;17.30;29.20;;;;;;5053832;28;20069;-65
2022/04/13 09:45:52;;;;;;;16.67;2.92;;;17.30;28.20;;;;;;5055006;28;20533;-65
2022/04/13 09:48:19;;;;;;;18.95;3.22;;;17.20;28.20;;;;;;5068749;28;20533;-65
2022/04/13 09:50:48;;;;;;;23.65;3.15;;;17.10;28.80;;;;;;5056138;28;20452;-60
2022/04/13 09:53:16;;;;;;;18.38;3.40;;;17.20;29.40;;;;;;5054960;28;20069;-64
2022/04/13 09:55:53;;;;;;;19.27;3.15;;;17.10;29.70;;;;;;5055873;28;20092;-60
2022/04/13 09:58:32;;;;;;;19.08;3.25;;;17.10;29.80;;;;;;5068113;28;20666;-60
2022/04/13 10:01:03;;;;;;;18.50;2.78;;;17.00;30.20;;;;;;5052543;28;20073;-60
2022/04/13 10:03:29;;;;;;;11.25;2.70;;;16.90;30.70;;;;;;5055115;28;20410;-61
2022/04/13 10:05:56;;;;;;;;;;;16.80;30.10;;;;;;5068272;28;20085;-61
2022/04/13 10:08:28;;;;;;;22.70;3.20;;;16.80;30.20;;;;;;5059321;28;19957;-64
2022/04/13 10:11:00;;;;;;;10.43;2.85;;;16.70;29.40;;;;;;5053903;28;20081;-62
2022/04/13 10:13:37;;;;;;;18.30;2.35;;;16.70;29.30;;;;;;5054316;28;20108;-60
2022/04/13 10:16:09;;;;;;;11.13;2.40;;;16.70;28.70;;;;;;5054482;28;20104;-62
2022/04/13 10:19:03;;;;;;;9.30;2.20;;;16.70;28.90;;;;;;5067811;28;20078;-60
2022/04/13 10:21:45;;;;;;;13.77;2.30;;;16.60;28.40;;;;;;5065432;28;20084;-61
2022/04/13 10:24:33;;;;;;;10.40;2.45;;;16.60;28.60;;;;;;5055643;28;20121;-62
2022/04/13 10:26:59;;;;;;;;;;;16.50;29.40;;;;;;5069252;28;20541;-56
2022/04/13 10:29:27;;;;;;;14.00;2.80;;;16.50;29.70;;;;;;5068430;28;19964;-61
2022/04/13 10:32:03;;;;;;;5.28;2.05;;;16.40;30.10;;;;;;5055413;28;20073;-59
2022/04/13 10:34:40;;;;;;;6.45;1.90;;;16.30;30.30;;;;;;5052854;28;20096;-61
2022/04/13 10:37:08;;;;;;;7.25;2.38;;;16.30;30.20;;;;;;5037199;28;20100;-62
2022/04/13 10:39:35;;;;;;;10.40;2.30;;;16.20;30.00;;;;;;5053745;28;20072;-62
2022/04/13 10:42:03;;;;;;;8.40;2.25;;;16.20;29.40;;;;;;5054186;28;20081;-65
2022/04/13 10:44:42;;;;;;;7.90;2.03;;;16.10;29.00;;;;;;5067177;28;20620;-62
2022/04/13 10:47:12;;;;;;;14.05;2.25;;;16.10;29.40;;;;;;5068353;28;20167;-63
2022/04/13 10:49:58;;;;;;;6.80;2.42;;;16.10;29.40;;;;;;5055860;28;20172;-62
2022/04/13 10:52:33;;;;;;;17.15;2.65;;;16.10;29.30;;;;;;5052311;28;20505;-60
2022/04/13 10:55:07;;;;;;;12.07;3.40;;;16.00;29.30;;;;;;5053739;28;20145;-61
2022/04/13 10:57:49;;;;;;;10.75;2.58;;;16.00;29.60;;;;;;5057382;28;20069;-64
2022/04/13 11:00:18;;;;;;;9.90;3.05;;;16.00;29.40;;;;;;5056180;28;20077;-63
2022/04/13 11:02:55;;;;;;;8.93;2.40;;;16.00;28.80;;;;;;5057393;28;20540;-61
2022/04/13 11:05:22;;;;;;;;;;;15.90;28.50;;;;;;5054945;28;20109;-57
2022/04/13 11:08:11;;;;;;;14.82;3.35;;;15.90;28.70;;;;;;5055429;28;19957;-61
2022/04/13 11:10:39;;;;;;;9.63;3.53;;;15.80;28.90;;;;;;5055189;28;20100;-60
2022/04/13 11:13:05;;;;;;;16.73;3.90;;;15.60;29.10;;;;;;5056173;28;20100;-63
2022/04/13 11:15:43;;;;;;;11.77;3.97;;;15.60;29.00;;;;;;5070192;28;20113;-61
2022/04/13 11:18:18;;;;;;;13.88;4.43;;;15.60;29.40;;;;;;5074181;28;20073;-63
2022/04/13 11:20:59;;;;;;;13.25;4.68;;;15.60;28.80;;;;;;5073888;28;20525;-60
2022/04/13 11:23:50;;;;;;;12.48;4.30;;;15.50;28.80;;;;;;5058999;28;20085;-60
2022/04/13 11:26:35;;;;;;;11.73;3.78;;;15.40;28.90;;;;;;5071564;28;20568;-59
2022/04/13 11:29:16;;;;;;;15.35;3.80;;;15.40;29.10;;;;;;5056379;28;20125;-60
2022/04/13 11:32:05;;;;;;;8.52;3.70;;;15.40;29.10;;;;;;5056499;28;20076;-60
2022/04/13 11:34:37;;;;;;;10.70;3.95;;;15.40;29.10;;;;;;5059012;28;20084;-59
2022/04/13 11:37:06;;;;;;;11.82;3.60;;;15.30;29.40;;;;;;5058219;28;20143;-61
2022/04/13 11:39:59;;;;;;;11.57;3.60;;;15.20;29.50;;;;;;5040934;28;20065;-61
2022/04/13 11:42:29;;;;;;;12.63;2.83;;;15.20;29.60;;;;;;5070071;28;20166;-62
2022/04/13 11:45:05;;;;;;;12.80;3.00;;;15.20;29.90;;;;;;5058045;28;20069;-62
2022/04/13 11:47:45;;;;;;;15.57;2.88;;;15.20;29.90;;;;;;5058541;28;20859;-62
2022/04/13 11:50:15;;;;;;;11.20;2.78;;;15.10;30.30;;;;;;5056238;28;20081;-64
2022/04/13 11:52:53;;;;;;;9.40;2.50;;;15.00;30.40;;;;;;5071601;28;20073;-64
2022/04/13 11:55:38;;;;;;;7.32;2.50;;;15.00;31.00;;;;;;5070424;28;20092;-63
2022/04/13 11:58:10;;;;;;;8.80;2.28;;;15.00;31.00;;;;;;5057619;28;20069;-61
2022/04/13 12:00:41;;;;;;;6.85;2.53;;;14.90;31.20;;;;;;5060246;28;20080;-62
2022/04/13 12:03:13;;;;;;;10.75;2.83;;;14.90;31.80;;;;;;5070526;28;20148;-63
2022/04/13 12:05:45;;;;;;;10.60;2.50;;;14.80;32.40;;;;;;5070043;28;20660;-59
2022/04/13 12:08:19;;;;;;;6.22;2.30;;;14.90;32.70;;;;;;5056932;28;20206;-58
2022/04/13 12:10:48;;;;;;;9.00;2.72;;;14.80;33.30;;;;;;5056226;28;20077;-60
2022/04/13 12:13:15;;;;;;;13.55;2.85;;;14.80;33.90;;;;;;5056547;28;20124;-61
2022/04/13 12:15:55;;;;;;;18.27;2.90;;;14.80;34.10;;;;;;5070453;28;20089;-58
2022/04/13 12:18:24;;;;;;;12.38;2.40;;;14.60;34.40;;;;;;5039350;28;20065;-62
2022/04/13 12:20:53;;;;;;;11.40;2.20;;;14.60;34.70;;;;;;5056540;28;20160;-58
2022/04/13 12:23:23;;;;;;;8.60;2.10;;;14.50;34.90;;;;;;5053713;28;20121;-61
2022/04/13 12:25:51;;;;;;;8.65;2.25;;;14.40;34.70;;;;;;5040154;28;20126;-60
2022/04/13 12:28:20;;;;;;;7.03;1.90;;;14.40;35.10;;;;;;5041802;28;20073;-60
2022/04/13 12:31:09;;;;;;;13.57;2.13;;;14.30;35.00;;;;;;5057888;28;20085;-60
2022/04/13 12:33:40;;;;;;;14.23;2.55;;;14.30;35.00;;;;;;5070295;28;20436;-61
2022/04/13 12:36:08;;;;;;;15.32;2.80;;;14.30;35.40;;;;;;5057135;28;20138;-61
2022/04/13 12:38:43;;;;;;;15.77;2.35;;;14.30;36.00;;;;;;5056617;28;20426;-59
2022/04/13 12:41:13;;;;;;;19.63;2.95;;;14.30;36.90;;;;;;5069269;28;20072;-63
2022/04/13 12:43:49;;;;;;;12.93;2.30;;;14.20;37.90;;;;;;5069154;28;20720;-60
2022/04/13 12:46:17;;;;;;;13.53;2.20;;;14.10;38.30;;;;;;5056647;28;20558;-65
2022/04/13 12:48:46;;;;;;;8.75;2.67;;;14.00;38.70;;;;;;5069622;28;21133;-62
2022/04/13 12:51:13;;;;;;;17.65;3.63;;;13.90;39.60;;;;;;5055740;28;20556;-60
2022/04/13 12:54:03;;;;;;;11.82;3.35;;;13.60;40.10;;;;;;5039557;28;20478;-60